VAM | FAF

Virtual Airlines Manager! Gestion de la flotte et des vols FAFZone VA FrenchAirForce A new look to your va. By: Jonatha Silva




 METAR ET TAF INFORMATION
METAR FOR LFTW
ADDS - METARS form results

(0455 UTC 25 September 2022)
Data provider http://aviationweather.gov/metar/data/
 
METAR text: LFTW 250430Z AUTO 31004KT CAVOK 13/12 Q1012 NOSIG
Conditions at: LFTW (NIMES/GARONS (NA, FR) observed 0430 UTC 25 September 2022
Temperature: 13.0°C (55°F)
Dewpoint: 12.0°C (54°F) [RH = 94%]
Pressure (altimeter): 29.88 inches Hg (1012.0 mb)
Winds: from the NW (310 degrees) at 5 MPH (4 knots; 2.1 m/s)
Visibility: 6 or more miles (10+ km)
Ceiling: ceiling and visibility are OK
Clouds: unknown
Weather: no significant weather observed at this time

METAR text: LFTW 250400Z AUTO 31005KT CAVOK 14/12 Q1011 NOSIG
Conditions at: LFTW (NIMES/GARONS (NA, FR) observed 0400 UTC 25 September 2022
Temperature: 14.0°C (57°F)
Dewpoint: 12.0°C (54°F) [RH = 88%]
Pressure (altimeter): 29.85 inches Hg (1011.0 mb)
Winds: from the NW (310 degrees) at 6 MPH (5 knots; 2.6 m/s)
Visibility: 6 or more miles (10+ km)
Ceiling: ceiling and visibility are OK
Clouds: unknown
Weather: no significant weather observed at this time

Forecast for: LFTW (NIMES/GARONS (NA, FR)
Text: TAF LFTW 250200Z 2503/2603 VRB04KT CAVOK
Forecast period: 0300 UTC 25 September 2022 to 0300 UTC 26 September 2022
Forecast type: FROM: standard forecast or significant change
Winds: variable direction winds at 5 MPH (4 knots; 2.1 m/s)
Visibility: 6 or more miles (10+ km)
Ceiling: unknown
Clouds: missing
Weather: NSW  (no significant weather)

 AÉROPORT DE AÉROPORT

 INFORMATIONS DE PISTE
Piste 18 Longueur de la piste 8005 ft Largeur de la piste 148 ft
Élévation de la piste 301 ft Seuil de la piste déplacés 0 ft Runway heading 177
Piste 36 Longueur de la piste 8005 ft Largeur de la piste 148 ft
Élévation de la piste 309 ft Seuil de la piste déplacés 0 ft Runway heading 357

 AÉROPORT FRÉQUENCES
Type APP Nom APP Féquence 119.7 MHZ
Type ATIS Nom ATIS Féquence 129.35 MHZ
Type GND Nom GND Féquence 121.8 MHZ
Type TWR Nom TWR Féquence 123.2 MHZ

 SIDA DE NAVIGATION
Type NDB Nom Nimes/Garons Féquence 354 KHZ
Type TACAN Nom Nimes Féquence 111600 KHZ